createdAt,value
2022-08-10T00:00:35.383Z,2.77
2022-08-10T00:03:22.595Z,3.10
2022-08-10T00:06:09.059Z,3.00
2022-08-10T00:08:55.848Z,3.10
2022-08-10T00:11:42.616Z,2.97
2022-08-10T00:14:29.017Z,2.80
2022-08-10T00:17:16.979Z,3.40
2022-08-10T00:20:08.718Z,3.10
2022-08-10T00:22:57.782Z,2.90
2022-08-10T00:25:44.853Z,3.00
2022-08-10T00:28:31.708Z,2.90
2022-08-10T00:31:18.487Z,3.03
2022-08-10T00:34:06.285Z,2.83
2022-08-10T00:36:53.112Z,3.07
2022-08-10T00:39:39.792Z,3.13
2022-08-10T00:42:26.667Z,3.10
2022-08-10T00:45:13.932Z,3.17
2022-08-10T00:48:00.521Z,2.83
2022-08-10T00:50:49.454Z,3.13
2022-08-10T00:53:35.951Z,2.87
2022-08-10T00:57:14.044Z,3.00
2022-08-10T00:59:31.334Z,3.00
2022-08-10T01:02:17.976Z,3.30
2022-08-10T01:05:07.624Z,3.00
2022-08-10T01:08:21.640Z,3.03
2022-08-10T01:12:31.429Z,2.90
2022-08-10T01:14:29.421Z,3.10
2022-08-10T01:17:50.127Z,3.23
2022-08-10T01:20:38.911Z,2.87
2022-08-10T01:24:02.614Z,3.37
2022-08-10T01:27:06.266Z,3.00
2022-08-10T01:30:05.911Z,3.33
2022-08-10T01:33:01.107Z,2.83
2022-08-10T01:35:53.720Z,3.10
2022-08-10T01:38:45.756Z,3.20
2022-08-10T01:41:46.109Z,3.10
2022-08-10T01:44:37.391Z,2.67
2022-08-10T01:47:48.068Z,2.80
2022-08-10T01:50:59.985Z,3.50
2022-08-10T01:53:52.183Z,2.70
2022-08-10T01:56:44.879Z,2.50
2022-08-10T01:59:35.884Z,2.90
2022-08-10T02:02:23.709Z,3.00
2022-08-10T02:05:12.768Z,2.70
2022-08-10T02:08:01.923Z,2.60
2022-08-10T02:10:50.593Z,3.37
2022-08-10T02:13:38.690Z,3.00
2022-08-10T02:16:27.826Z,3.03
2022-08-10T02:19:19.363Z,2.87
2022-08-10T02:22:35.704Z,3.63
2022-08-10T02:25:41.034Z,3.13
2022-08-10T02:28:30.228Z,3.37
2022-08-10T02:31:23.132Z,2.70
2022-08-10T02:34:11.457Z,3.30
2022-08-10T02:36:59.449Z,3.23
2022-08-10T02:39:47.761Z,3.23
2022-08-10T02:45:24.121Z,3.83
2022-08-10T02:45:53.710Z,2.83
2022-08-10T02:48:45.590Z,3.37
2022-08-10T02:52:08.233Z,3.67
2022-08-10T02:54:53.206Z,3.53
2022-08-10T02:58:17.224Z,3.20
2022-08-10T03:00:52.772Z,3.03
2022-08-10T03:03:45.747Z,3.40
2022-08-10T03:06:38.215Z,3.37
2022-08-10T03:09:26.247Z,3.40
2022-08-10T03:12:37.313Z,3.00
2022-08-10T03:15:23.490Z,3.20
2022-08-10T03:18:11.412Z,2.87
2022-08-10T03:20:59.926Z,3.50
2022-08-10T03:23:47.201Z,3.20
2022-08-10T03:26:34.433Z,3.53
2022-08-10T03:29:23.754Z,3.30
2022-08-10T03:32:12.077Z,3.50
2022-08-10T03:34:59.883Z,3.30
2022-08-10T03:37:46.645Z,3.77
2022-08-10T03:40:45.492Z,3.20
2022-08-10T03:43:34.808Z,3.30
2022-08-10T03:46:25.006Z,3.30
2022-08-10T03:49:13.007Z,3.20
2022-08-10T03:52:00.757Z,2.97
2022-08-10T03:54:48.361Z,3.23
2022-08-10T03:57:35.577Z,2.70
2022-08-10T04:00:36.662Z,3.47
2022-08-10T04:03:24.949Z,3.60
2022-08-10T04:06:16.351Z,3.20
2022-08-10T04:09:04.369Z,3.63
2022-08-10T04:11:50.908Z,3.47
2022-08-10T04:14:49.032Z,3.33
2022-08-10T04:18:03.541Z,3.87
2022-08-10T04:20:49.825Z,3.10
2022-08-10T04:23:39.345Z,3.13
2022-08-10T04:26:26.390Z,3.43
2022-08-10T04:29:13.155Z,3.20
2022-08-10T04:32:03.907Z,3.87
2022-08-10T04:34:53.007Z,3.53
2022-08-10T04:37:47.372Z,3.20
2022-08-10T04:40:34.312Z,3.20
2022-08-10T04:43:20.805Z,3.17
2022-08-10T04:46:42.475Z,3.30
2022-08-10T04:49:54.283Z,3.07
2022-08-10T04:52:22.015Z,3.33
2022-08-10T04:55:13.598Z,3.43
2022-08-10T04:58:00.346Z,3.30
2022-08-10T05:00:46.882Z,3.40
2022-08-10T05:03:33.499Z,3.10
2022-08-10T05:06:19.993Z,3.53
2022-08-10T05:09:07.151Z,3.43
2022-08-10T05:11:55.396Z,3.83
2022-08-10T05:14:42.293Z,3.00
2022-08-10T05:17:28.787Z,3.37
2022-08-10T05:20:15.417Z,3.90
2022-08-10T05:23:02.274Z,3.50
2022-08-10T05:25:48.808Z,3.27
2022-08-10T05:28:37.081Z,3.30
2022-08-10T05:31:24.164Z,3.00
2022-08-10T05:34:20.335Z,3.20
2022-08-10T05:38:09.147Z,3.60
2022-08-10T05:40:17.817Z,3.50
2022-08-10T05:43:04.623Z,3.37
2022-08-10T05:46:16.947Z,3.23
2022-08-10T05:49:01.567Z,3.03
2022-08-10T05:51:48.863Z,3.33
2022-08-10T05:54:35.738Z,3.07
2022-08-10T05:57:23.771Z,3.30
2022-08-10T06:00:36.318Z,3.53
2022-08-10T06:03:27.347Z,3.40
2022-08-10T06:06:14.897Z,3.50
2022-08-10T06:09:02.363Z,2.90
2022-08-10T06:12:23.446Z,3.30
2022-08-10T06:15:05.330Z,3.30
2022-08-10T06:17:59.014Z,3.27
2022-08-10T06:20:51.691Z,3.30
2022-08-10T06:23:39.984Z,3.70
2022-08-10T06:26:26.785Z,3.30
2022-08-10T06:29:16.038Z,3.20
2022-08-10T06:32:04.135Z,3.10
2022-08-10T06:34:54.418Z,3.10
2022-08-10T06:37:43.418Z,3.00
2022-08-10T06:40:42.175Z,3.10
2022-08-10T06:43:29.828Z,3.13
2022-08-10T06:46:20.717Z,3.30
2022-08-10T06:49:10.531Z,2.90
2022-08-10T06:51:58.730Z,3.10
2022-08-10T06:54:48.053Z,2.90
2022-08-10T06:57:38.233Z,3.40
2022-08-10T07:00:33.633Z,3.20
2022-08-10T07:03:24.776Z,2.70
2022-08-10T07:06:13.570Z,2.80
2022-08-10T07:09:01.992Z,2.80
2022-08-10T07:11:51.974Z,2.90
2022-08-10T07:14:40.794Z,2.83
2022-08-10T07:17:29.495Z,2.70
2022-08-10T07:20:18.842Z,2.77
2022-08-10T07:23:58.872Z,3.10
2022-08-10T07:26:14.968Z,2.73
2022-08-10T07:29:04.274Z,2.70
2022-08-10T07:31:57.046Z,2.60
2022-08-10T07:34:46.216Z,2.63
2022-08-10T07:37:37.379Z,3.20
2022-08-10T07:40:25.284Z,2.80
2022-08-10T07:43:13.636Z,3.10
2022-08-10T07:46:05.450Z,2.73
2022-08-10T07:49:02.333Z,2.73
2022-08-10T07:52:08.103Z,2.63
2022-08-10T07:54:56.390Z,2.37
2022-08-10T07:57:45.549Z,2.60
2022-08-10T08:00:33.784Z,2.73
2022-08-10T08:03:25.402Z,2.70
2022-08-10T08:06:13.371Z,2.20
2022-08-10T08:09:01.627Z,2.13
2022-08-10T08:11:50.507Z,2.20
2022-08-10T08:14:40.030Z,2.47
2022-08-10T08:17:35.612Z,2.40
2022-08-10T08:20:26.671Z,2.23
2022-08-10T08:24:07.519Z,2.03
2022-08-10T08:26:25.604Z,1.73
2022-08-10T08:29:17.946Z,2.00
2022-08-10T08:32:06.057Z,1.87
2022-08-10T08:34:56.829Z,1.70
2022-08-10T08:38:31.914Z,1.67
2022-08-10T08:41:02.095Z,1.93
2022-08-10T08:44:05.242Z,1.77
2022-08-10T08:48:03.202Z,1.97
2022-08-10T08:50:38.188Z,2.27
2022-08-10T08:54:01.838Z,1.80
2022-08-10T08:56:59.867Z,1.50
2022-08-10T08:59:58.197Z,1.67
2022-08-10T09:03:08.374Z,1.77
2022-08-10T09:06:06.389Z,1.63
2022-08-10T09:09:20.023Z,1.60
2022-08-10T09:12:23.943Z,1.83
2022-08-10T09:15:40.322Z,1.50
2022-08-10T09:18:29.869Z,1.33
2022-08-10T09:21:22.787Z,2.10
2022-08-10T09:24:20.463Z,1.50
2022-08-10T09:27:15.856Z,1.95
2022-08-10T09:30:07.480Z,1.45
2022-08-10T09:36:24.240Z,1.90
2022-08-10T09:36:33.285Z,1.48
2022-08-10T09:40:46.317Z,1.50
2022-08-10T09:42:41.894Z,1.58
2022-08-10T09:45:37.166Z,1.70
2022-08-10T09:48:33.009Z,1.88
2022-08-10T09:51:47.634Z,1.65
2022-08-10T09:54:49.875Z,1.50
2022-08-10T09:57:46.559Z,1.40
2022-08-10T10:00:40.620Z,1.63
2022-08-10T10:03:33.058Z,1.50
2022-08-10T10:06:30.080Z,1.52
2022-08-10T10:09:26.842Z,1.42
2022-08-10T10:12:28.087Z,1.40
2022-08-10T10:15:26.667Z,1.20
2022-08-10T10:18:30.179Z,1.30
2022-08-10T10:21:54.658Z,1.23
2022-08-10T10:24:48.634Z,1.45
2022-08-10T10:27:48.097Z,1.50
2022-08-10T10:30:47.267Z,1.33
2022-08-10T10:33:44.824Z,1.52
2022-08-10T10:36:33.985Z,1.55
2022-08-10T10:39:24.519Z,1.20
2022-08-10T10:42:46.636Z,1.40
2022-08-10T10:45:50.131Z,1.40
2022-08-10T10:48:42.585Z,1.30
2022-08-10T10:51:35.048Z,1.30
2022-08-10T10:54:29.516Z,1.52
2022-08-10T10:57:58.153Z,1.60
2022-08-10T11:00:44.957Z,1.50
2022-08-10T11:03:51.762Z,1.40
2022-08-10T11:06:50.904Z,1.58
2022-08-10T11:10:03.579Z,1.48
2022-08-10T11:12:57.181Z,1.40
2022-08-10T11:16:01.071Z,1.40
2022-08-10T11:18:58.794Z,1.42
2022-08-10T11:21:56.432Z,1.38
2022-08-10T11:24:53.315Z,1.40
2022-08-10T11:27:48.995Z,1.33
2022-08-10T11:30:45.640Z,1.33
2022-08-10T11:34:04.120Z,1.35
2022-08-10T11:36:58.894Z,1.58
2022-08-10T11:39:52.493Z,1.30
2022-08-10T11:42:44.405Z,1.35
2022-08-10T11:45:35.270Z,1.15
2022-08-10T11:48:53.788Z,1.52
2022-08-10T11:51:46.249Z,1.23
2022-08-10T11:54:43.320Z,1.50
2022-08-10T11:57:54.370Z,1.40
2022-08-10T12:00:40.200Z,1.25
2022-08-10T12:03:31.456Z,1.10
2022-08-10T12:06:45.468Z,1.42
2022-08-10T12:10:06.001Z,1.10
2022-08-10T12:12:47.760Z,1.20
2022-08-10T12:15:40.026Z,1.20
2022-08-10T12:18:33.912Z,2.10
2022-08-10T12:21:24.233Z,1.50
2022-08-10T12:24:19.598Z,1.50
2022-08-10T12:27:13.316Z,1.63
2022-08-10T12:30:05.285Z,1.58
2022-08-10T12:33:00.557Z,1.30
2022-08-10T12:36:16.971Z,1.10
2022-08-10T12:39:04.815Z,1.42
2022-08-10T12:41:57.958Z,1.45
2022-08-10T12:44:54.214Z,1.23
2022-08-10T12:47:46.171Z,1.23
2022-08-10T12:50:40.319Z,1.27
2022-08-10T12:53:41.547Z,1.15
2022-08-10T12:56:33.965Z,1.15
2022-08-10T12:59:27.238Z,1.23
2022-08-10T13:02:21.479Z,1.30
2022-08-10T13:05:11.150Z,1.40
2022-08-10T13:08:27.246Z,1.10
2022-08-10T13:12:37.308Z,1.27
2022-08-10T13:14:38.551Z,1.20
2022-08-10T13:17:38.619Z,1.20
2022-08-10T13:20:31.060Z,1.25
2022-08-10T13:23:23.076Z,1.40
2022-08-10T13:26:15.605Z,1.35
2022-08-10T13:29:03.317Z,1.20
2022-08-10T13:32:08.947Z,1.30
2022-08-10T13:35:02.248Z,1.00
2022-08-10T13:37:52.309Z,1.05
2022-08-10T13:40:40.602Z,1.30
2022-08-10T13:43:27.725Z,1.30
2022-08-10T13:46:22.454Z,1.30
2022-08-10T13:49:12.145Z,1.30
2022-08-10T13:52:00.227Z,1.50
2022-08-10T13:54:47.631Z,1.40
2022-08-10T13:57:36.869Z,1.13
2022-08-10T14:00:38.282Z,1.40
2022-08-10T14:03:26.952Z,1.38
2022-08-10T14:06:16.517Z,1.30
2022-08-10T14:09:12.425Z,1.20
2022-08-10T14:11:59.956Z,1.45
2022-08-10T14:14:52.638Z,1.38
2022-08-10T14:17:44.773Z,1.63
2022-08-10T14:20:34.754Z,1.55
2022-08-10T14:23:21.573Z,1.30
2022-08-10T14:26:10.255Z,1.60
2022-08-10T14:29:07.191Z,1.40
2022-08-10T14:32:01.883Z,1.70
2022-08-10T14:36:16.610Z,1.57
2022-08-10T14:38:00.740Z,1.60
2022-08-10T14:40:54.950Z,1.70
2022-08-10T14:43:44.021Z,2.00
2022-08-10T14:46:32.227Z,1.93
2022-08-10T14:49:25.935Z,2.10
2022-08-10T14:52:14.423Z,1.80
2022-08-10T14:55:05.735Z,1.90
2022-08-10T14:58:17.155Z,1.90
2022-08-10T15:01:10.302Z,1.80
2022-08-10T15:04:03.378Z,1.93
2022-08-10T15:06:55.048Z,1.90
2022-08-10T15:10:01.068Z,1.80
2022-08-10T15:12:54.186Z,1.90
2022-08-10T15:16:02.296Z,1.83
2022-08-10T15:18:58.207Z,1.60
2022-08-10T15:21:47.122Z,2.07
2022-08-10T15:25:04.161Z,1.90
2022-08-10T15:27:55.760Z,1.87
2022-08-10T15:30:44.548Z,1.63
2022-08-10T15:34:08.516Z,1.90
2022-08-10T15:37:39.502Z,2.00
2022-08-10T15:40:30.726Z,1.87
2022-08-10T15:43:25.420Z,1.90
2022-08-10T15:46:17.321Z,2.00
2022-08-10T15:49:08.407Z,1.77
2022-08-10T15:52:02.459Z,2.07
2022-08-10T15:54:54.534Z,2.00
2022-08-10T15:57:47.543Z,2.10
2022-08-10T16:00:37.884Z,1.93
2022-08-10T16:03:31.433Z,1.90
2022-08-10T16:06:26.031Z,1.97
2022-08-10T16:10:22.195Z,2.07
2022-08-10T16:12:34.126Z,1.90
2022-08-10T16:15:23.992Z,1.77
2022-08-10T16:18:14.226Z,1.83
2022-08-10T16:21:02.869Z,2.00
2022-08-10T16:24:15.020Z,1.70
2022-08-10T16:27:07.482Z,1.90
2022-08-10T16:29:59.911Z,2.10
2022-08-10T16:32:49.853Z,2.00
2022-08-10T16:35:39.370Z,1.77
2022-08-10T16:38:26.720Z,1.90
2022-08-10T16:41:23.710Z,2.00
2022-08-10T16:44:29.661Z,1.60
2022-08-10T16:47:16.171Z,2.30
2022-08-10T16:50:05.543Z,1.80
2022-08-10T16:52:54.907Z,1.93
2022-08-10T16:55:50.348Z,2.10
2022-08-10T16:58:40.033Z,2.10
2022-08-10T17:01:32.498Z,2.50
2022-08-10T17:04:20.446Z,2.40
2022-08-10T17:07:14.667Z,1.77
2022-08-10T17:10:07.799Z,4.20
2022-08-10T17:12:57.604Z,2.40
2022-08-10T17:15:52.485Z,2.40
2022-08-10T17:18:46.517Z,2.30
2022-08-10T17:21:50.979Z,2.23
2022-08-10T17:24:44.214Z,2.30
2022-08-10T17:28:24.395Z,2.67
2022-08-10T17:30:58.192Z,2.80
2022-08-10T17:33:48.592Z,2.20
2022-08-10T17:36:37.569Z,2.00
2022-08-10T17:39:29.941Z,2.30
2022-08-10T17:42:22.226Z,1.93
2022-08-10T17:45:20.836Z,2.40
2022-08-10T17:48:30.462Z,2.17
2022-08-10T17:51:19.519Z,1.90
2022-08-10T17:54:09.451Z,2.10
2022-08-10T17:56:59.989Z,2.27
2022-08-10T17:59:49.082Z,2.57
2022-08-10T18:02:40.174Z,2.10
2022-08-10T18:05:27.337Z,2.53
2022-08-10T18:08:20.026Z,2.10
2022-08-10T18:11:16.260Z,2.13
2022-08-10T18:14:05.821Z,2.43
2022-08-10T18:16:56.466Z,2.20
2022-08-10T18:19:47.855Z,1.80
2022-08-10T18:22:37.347Z,2.20
2022-08-10T18:25:28.551Z,2.20
2022-08-10T18:28:19.591Z,2.30
2022-08-10T18:31:08.852Z,2.67
2022-08-10T18:33:58.209Z,2.27
2022-08-10T18:36:46.221Z,2.60
2022-08-10T18:39:37.070Z,2.50
2022-08-10T18:42:31.928Z,2.50
2022-08-10T18:45:22.116Z,2.40
2022-08-10T18:48:12.393Z,2.20
2022-08-10T18:51:05.453Z,2.10
2022-08-10T18:53:56.417Z,2.10
2022-08-10T18:56:57.599Z,2.47
2022-08-10T19:00:08.643Z,2.30
2022-08-10T19:03:17.411Z,2.40
2022-08-10T19:06:20.889Z,2.30
2022-08-10T19:09:45.912Z,2.80
2022-08-10T19:12:45.642Z,2.40
2022-08-10T19:15:40.308Z,2.83
2022-08-10T19:18:33.671Z,2.53
2022-08-10T19:21:24.295Z,2.50
2022-08-10T19:24:20.334Z,2.80
2022-08-10T19:27:13.360Z,2.40
2022-08-10T19:30:11.622Z,2.60
2022-08-10T19:33:23.103Z,2.40
2022-08-10T19:36:18.592Z,2.57
2022-08-10T19:39:18.042Z,2.50
2022-08-10T19:42:11.498Z,2.40
2022-08-10T19:45:05.421Z,2.77
2022-08-10T19:47:56.597Z,2.83
2022-08-10T19:50:53.962Z,2.60
2022-08-10T19:53:48.667Z,2.37
2022-08-10T19:56:46.775Z,2.70
2022-08-10T20:00:15.286Z,2.40
2022-08-10T20:03:12.006Z,2.50
2022-08-10T20:06:19.266Z,2.63
2022-08-10T20:09:13.668Z,3.03
2022-08-10T20:12:04.230Z,3.03
2022-08-10T20:14:59.301Z,2.60
2022-08-10T20:17:55.695Z,2.60
2022-08-10T20:20:49.584Z,2.73
2022-08-10T20:23:39.995Z,2.60
2022-08-10T20:26:47.181Z,3.90
2022-08-10T20:29:57.956Z,2.40
2022-08-10T20:32:47.604Z,3.00
2022-08-10T20:35:47.818Z,2.67
2022-08-10T20:38:44.442Z,2.70
2022-08-10T20:41:46.526Z,2.53
2022-08-10T20:44:50.770Z,2.57
2022-08-10T20:47:54.095Z,2.83
2022-08-10T20:50:44.137Z,2.70
2022-08-10T20:53:34.338Z,2.60
2022-08-10T20:56:36.018Z,2.50
2022-08-10T21:00:04.592Z,2.67
2022-08-10T21:03:07.578Z,2.30
2022-08-10T21:06:04.114Z,2.80
2022-08-10T21:09:02.623Z,2.40
2022-08-10T21:12:04.742Z,2.60
2022-08-10T21:15:01.217Z,3.13
2022-08-10T21:18:08.595Z,2.63
2022-08-10T21:21:01.952Z,2.77
2022-08-10T21:24:01.576Z,2.57
2022-08-10T21:26:56.476Z,2.93
2022-08-10T21:29:56.446Z,3.40
2022-08-10T21:32:50.669Z,3.17
2022-08-10T21:35:42.460Z,4.27
2022-08-10T21:38:37.952Z,3.10
2022-08-10T21:41:57.095Z,3.17
2022-08-10T21:45:16.714Z,3.20
2022-08-10T21:48:33.317Z,3.10
2022-08-10T21:52:00.492Z,3.00
2022-08-10T21:55:10.387Z,3.20
2022-08-10T21:58:22.414Z,3.40
2022-08-10T22:01:40.234Z,2.90
2022-08-10T22:04:45.610Z,2.73
2022-08-10T22:07:51.790Z,3.10
2022-08-10T22:11:01.174Z,3.10
2022-08-10T22:14:09.594Z,3.07
2022-08-10T22:18:00.908Z,3.40
2022-08-10T22:20:46.507Z,3.20
2022-08-10T22:24:16.766Z,3.00
2022-08-10T22:31:26.182Z,3.00
2022-08-10T22:31:29.742Z,2.90
2022-08-10T22:35:09.069Z,2.80
2022-08-10T22:38:24.857Z,3.50
2022-08-10T22:41:42.108Z,3.10
2022-08-10T22:44:49.143Z,3.37
2022-08-10T22:47:53.467Z,3.30
2022-08-10T22:50:44.506Z,3.23
2022-08-10T22:53:50.066Z,3.37
2022-08-10T22:56:56.439Z,3.30
2022-08-10T22:59:43.095Z,3.67
2022-08-10T23:02:35.169Z,3.40
2022-08-10T23:05:30.613Z,3.30
2022-08-10T23:08:30.252Z,2.60
2022-08-10T23:11:23.451Z,3.10
2022-08-10T23:14:13.149Z,3.57
2022-08-10T23:17:18.692Z,3.20
2022-08-10T23:20:10.280Z,3.27
2022-08-10T23:23:07.561Z,3.50
2022-08-10T23:26:01.259Z,3.30
2022-08-10T23:29:03.249Z,3.53
2022-08-10T23:32:07.377Z,3.47
2022-08-10T23:36:05.680Z,3.33
2022-08-10T23:38:04.477Z,3.03
2022-08-10T23:40:54.501Z,3.50
2022-08-10T23:44:03.421Z,3.30
2022-08-10T23:46:51.735Z,3.40
2022-08-10T23:49:39.462Z,3.27
2022-08-10T23:52:31.155Z,3.30
2022-08-10T23:55:24.549Z,3.40
2022-08-10T23:58:33.157Z,3.10
